createdAt,value
2022-09-11T00:00:59.295Z,101350.75
2022-09-11T00:03:27.987Z,101373.34
2022-09-11T00:05:54.362Z,101341.34
2022-09-11T00:08:21.363Z,101369.34
2022-09-11T00:10:48.764Z,101376.06
2022-09-11T00:13:21.551Z,101330.41
2022-09-11T00:15:51.764Z,101377.56
2022-09-11T00:18:21.673Z,101369.81
2022-09-11T00:20:54.376Z,101377.91
2022-09-11T00:23:23.238Z,101379.09
2022-09-11T00:25:50.160Z,101375.38
2022-09-11T00:28:22.326Z,101360.75
2022-09-11T00:31:08.127Z,101385.00
2022-09-11T00:33:35.535Z,101385.16
2022-09-11T00:36:06.135Z,101372.53
2022-09-11T00:38:35.339Z,101371.69
2022-09-11T00:41:03.722Z,101354.00
2022-09-11T00:44:01.162Z,101375.41
2022-09-11T00:46:43.359Z,101372.53
2022-09-11T00:49:17.448Z,101375.22
2022-09-11T00:51:49.278Z,101371.69
2022-09-11T00:54:20.325Z,101376.22
2022-09-11T00:56:48.040Z,101350.63
2022-09-11T00:59:15.676Z,101390.53
2022-09-11T01:01:42.072Z,101366.13
2022-09-11T01:04:09.274Z,101381.97
2022-09-11T01:06:36.241Z,101376.91
2022-09-11T01:09:02.730Z,101360.72
2022-09-11T01:11:54.002Z,101386.19
2022-09-11T01:14:40.189Z,101379.44
2022-09-11T01:17:32.683Z,101388.38
2022-09-11T01:20:44.935Z,101391.75
2022-09-11T01:23:17.175Z,101394.78
2022-09-11T01:25:55.685Z,101398.31
2022-09-11T01:28:37.678Z,101381.78
2022-09-11T01:31:10.845Z,101404.38
2022-09-11T01:33:51.001Z,101392.41
2022-09-11T01:36:28.725Z,101381.28
2022-09-11T01:39:03.226Z,101397.81
2022-09-11T01:41:41.324Z,101402.53
2022-09-11T01:44:21.415Z,101397.81
2022-09-11T01:46:50.563Z,101398.13
2022-09-11T01:49:35.852Z,101406.38
2022-09-11T01:52:08.781Z,101404.84
2022-09-11T01:54:44.576Z,101403.84
2022-09-11T01:57:18.526Z,101406.53
2022-09-11T01:59:49.647Z,101389.34
2022-09-11T02:02:22.055Z,101383.50
2022-09-11T02:05:11.094Z,101410.94
2022-09-11T02:07:52.167Z,101406.53
2022-09-11T02:10:27.777Z,101384.66
2022-09-11T02:13:05.207Z,101401.69
2022-09-11T02:15:40.555Z,101422.22
2022-09-11T02:18:18.779Z,101404.53
2022-09-11T02:20:47.676Z,101385.47
2022-09-11T02:23:15.364Z,101410.94
2022-09-11T02:25:41.954Z,101408.06
2022-09-11T02:28:08.436Z,101407.91
2022-09-11T02:30:34.968Z,101421.88
2022-09-11T02:33:01.710Z,101402.47
2022-09-11T02:35:38.920Z,101412.13
2022-09-11T02:38:21.330Z,101408.59
2022-09-11T02:40:56.336Z,101433.66
2022-09-11T02:43:32.973Z,101431.31
2022-09-11T02:46:34.586Z,101443.44
2022-09-11T02:49:19.561Z,101445.63
2022-09-11T02:52:03.305Z,101415.09
2022-09-11T02:54:45.747Z,101441.06
2022-09-11T02:57:33.054Z,101426.72
2022-09-11T03:00:02.667Z,101446.81
2022-09-11T03:02:33.913Z,101443.44
2022-09-11T03:05:00.355Z,101413.06
2022-09-11T03:07:26.998Z,101457.91
2022-09-11T03:09:53.390Z,101456.91
2022-09-11T03:12:20.196Z,101438.72
2022-09-11T03:14:46.576Z,101434.88
2022-09-11T03:17:13.413Z,101421.03
2022-09-11T03:19:39.770Z,101429.97
2022-09-11T03:22:06.417Z,101455.25
2022-09-11T03:24:32.879Z,101448.16
2022-09-11T03:26:59.346Z,101424.41
2022-09-11T03:29:25.927Z,101456.94
2022-09-11T03:31:52.360Z,101435.53
2022-09-11T03:34:20.200Z,101423.72
2022-09-11T03:36:48.002Z,101458.13
2022-09-11T03:39:14.417Z,101460.47
2022-09-11T03:41:40.771Z,101461.13
2022-09-11T03:44:07.907Z,101434.34
2022-09-11T03:46:34.994Z,101447.31
2022-09-11T03:49:01.392Z,101461.66
2022-09-11T03:51:27.956Z,101427.47
2022-09-11T03:53:54.310Z,101444.78
2022-09-11T03:56:21.221Z,101464.69
2022-09-11T03:58:48.236Z,101454.72
2022-09-11T04:01:18.816Z,101467.06
2022-09-11T04:03:45.225Z,101470.75
2022-09-11T04:06:11.919Z,101441.25
2022-09-11T04:08:41.196Z,101463.00
2022-09-11T04:11:07.810Z,101430.81
2022-09-11T04:13:36.770Z,101455.91
2022-09-11T04:16:19.913Z,101469.06
2022-09-11T04:18:46.966Z,101465.03
2022-09-11T04:21:15.795Z,101452.03
2022-09-11T04:23:42.880Z,101469.41
2022-09-11T04:26:19.317Z,101470.75
2022-09-11T04:28:46.389Z,101463.50
2022-09-11T04:31:14.676Z,101481.53
2022-09-11T04:33:41.779Z,101484.03
2022-09-11T04:36:10.867Z,101488.44
2022-09-11T04:38:38.292Z,101459.44
2022-09-11T04:41:06.360Z,101480.69
2022-09-11T04:43:39.314Z,101485.56
2022-09-11T04:46:07.835Z,101489.09
2022-09-11T04:48:34.315Z,101496.88
2022-09-11T04:51:08.491Z,101497.19
2022-09-11T04:53:37.338Z,101490.81
2022-09-11T04:56:14.471Z,101465.84
2022-09-11T04:58:42.793Z,101501.25
2022-09-11T05:01:16.133Z,101502.91
2022-09-11T05:03:45.321Z,101511.38
2022-09-11T05:06:16.281Z,101499.38
2022-09-11T05:08:47.336Z,101499.53
2022-09-11T05:11:16.341Z,101520.78
2022-09-11T05:13:43.856Z,101509.66
2022-09-11T05:16:13.122Z,101518.09
2022-09-11T05:18:41.135Z,101523.63
2022-09-11T05:21:18.100Z,101526.69
2022-09-11T05:23:48.635Z,101533.63
2022-09-11T05:26:18.759Z,101536.09
2022-09-11T05:28:45.151Z,101540.69
2022-09-11T05:31:15.761Z,101529.22
2022-09-11T05:33:44.018Z,101542.03
2022-09-11T05:36:11.949Z,101526.50
2022-09-11T05:38:41.690Z,101531.75
2022-09-11T05:41:11.321Z,101550.31
2022-09-11T05:43:38.797Z,101537.16
2022-09-11T05:46:06.912Z,101522.63
2022-09-11T05:48:35.118Z,101560.91
2022-09-11T05:51:04.837Z,101550.13
2022-09-11T05:53:32.844Z,101545.41
2022-09-11T05:56:06.601Z,101544.75
2022-09-11T05:58:33.462Z,101541.22
2022-09-11T06:01:08.422Z,101552.84
2022-09-11T06:03:36.422Z,101559.75
2022-09-11T06:06:04.674Z,101548.47
2022-09-11T06:08:34.472Z,101540.72
2022-09-11T06:11:04.154Z,101564.16
2022-09-11T06:13:31.973Z,101564.66
2022-09-11T06:15:58.394Z,101558.75
2022-09-11T06:18:24.797Z,101556.91
2022-09-11T06:20:58.293Z,101575.81
2022-09-11T06:23:25.236Z,101565.97
2022-09-11T06:25:54.300Z,101550.97
2022-09-11T06:28:23.176Z,101573.28
2022-09-11T06:30:50.956Z,101580.84
2022-09-11T06:33:20.389Z,101570.19
2022-09-11T06:36:04.008Z,101574.97
2022-09-11T06:38:34.235Z,101608.19
2022-09-11T06:41:07.890Z,101600.72
2022-09-11T06:43:34.416Z,101598.56
2022-09-11T06:46:09.218Z,101605.66
2022-09-11T06:48:36.075Z,101602.44
2022-09-11T06:51:04.242Z,101586.25
2022-09-11T06:53:30.669Z,101612.72
2022-09-11T06:56:05.225Z,101609.19
2022-09-11T06:58:31.626Z,101586.72
2022-09-11T07:01:05.829Z,101599.56
2022-09-11T07:03:33.134Z,101594.69
2022-09-11T07:06:00.569Z,101576.13
2022-09-11T07:08:27.534Z,101600.59
2022-09-11T07:10:54.306Z,101601.56
2022-09-11T07:13:24.204Z,101597.34
2022-09-11T07:16:00.110Z,101605.44
2022-09-11T07:18:26.482Z,101609.31
2022-09-11T07:20:52.886Z,101600.34
2022-09-11T07:23:19.357Z,101593.25
2022-09-11T07:25:45.924Z,101567.28
2022-09-11T07:28:12.407Z,101579.38
2022-09-11T07:30:40.527Z,101618.81
2022-09-11T07:33:07.042Z,101610.19
2022-09-11T07:35:36.779Z,101590.59
2022-09-11T07:38:03.135Z,101603.59
2022-09-11T07:40:29.477Z,101621.47
2022-09-11T07:42:55.834Z,101618.41
2022-09-11T07:45:22.982Z,101619.91
2022-09-11T07:47:49.406Z,101614.69
2022-09-11T07:50:18.071Z,101607.78
2022-09-11T07:52:44.536Z,101636.22
2022-09-11T07:55:11.141Z,101615.31
2022-09-11T07:57:37.602Z,101609.56
2022-09-11T08:00:16.134Z,101625.19
2022-09-11T08:02:43.018Z,101600.78
2022-09-11T08:05:11.053Z,101644.72
2022-09-11T08:07:38.527Z,101609.63
2022-09-11T08:10:26.071Z,101600.22
2022-09-11T08:12:56.884Z,101641.63
2022-09-11T08:15:29.031Z,101540.38
2022-09-11T08:17:55.493Z,101653.91
2022-09-11T08:20:21.861Z,101643.63
2022-09-11T08:22:48.379Z,101657.66
2022-09-11T08:25:14.847Z,101629.50
2022-09-11T08:27:41.249Z,101638.28
2022-09-11T08:30:08.489Z,101654.28
2022-09-11T08:32:34.904Z,101650.00
2022-09-11T08:35:01.291Z,101655.88
2022-09-11T08:37:27.860Z,101678.44
2022-09-11T08:39:54.263Z,101664.38
2022-09-11T08:42:20.738Z,101650.16
2022-09-11T08:44:50.406Z,101665.88
2022-09-11T08:47:20.483Z,101649.94
2022-09-11T08:49:52.274Z,101674.44
2022-09-11T08:52:18.626Z,101682.56
2022-09-11T08:54:47.533Z,101683.53
2022-09-11T08:57:56.458Z,101687.34
2022-09-11T09:00:27.961Z,101677.69
2022-09-11T09:03:15.923Z,101687.44
2022-09-11T09:05:58.133Z,101692.03
2022-09-11T09:09:00.527Z,101676.50
2022-09-11T09:11:56.095Z,101670.22
2022-09-11T09:14:32.000Z,101680.88
2022-09-11T09:17:41.810Z,101676.38
2022-09-11T09:20:16.910Z,101674.50
2022-09-11T09:23:04.687Z,101678.97
2022-09-11T09:25:36.777Z,101679.25
2022-09-11T09:28:16.681Z,101687.47
2022-09-11T09:30:58.416Z,101682.25
2022-09-11T09:33:41.230Z,101668.84
2022-09-11T09:36:17.857Z,101669.94
2022-09-11T09:38:44.593Z,101676.81
2022-09-11T09:41:38.740Z,101682.66
2022-09-11T09:44:24.032Z,101686.38
2022-09-11T09:49:29.966Z,101683.84
2022-09-11T09:52:04.048Z,101680.75
2022-09-11T09:54:36.470Z,101681.16
2022-09-11T09:57:10.392Z,101681.03
2022-09-11T09:59:52.817Z,101678.06
2022-09-11T10:02:45.529Z,101690.75
2022-09-11T10:05:26.094Z,101686.56
2022-09-11T10:07:59.737Z,101650.34
2022-09-11T10:10:29.652Z,101698.25
2022-09-11T10:13:17.747Z,101702.06
2022-09-11T10:15:48.390Z,101665.13
2022-09-11T10:18:22.613Z,101701.66
2022-09-11T10:20:49.237Z,101695.53
2022-09-11T10:23:28.136Z,101692.63
2022-09-11T10:25:55.645Z,101690.53
2022-09-11T10:28:32.427Z,101681.09
2022-09-11T10:31:03.542Z,101678.59
2022-09-11T10:33:33.651Z,101688.66
2022-09-11T10:36:04.407Z,101672.06
2022-09-11T10:38:52.230Z,101676.84
2022-09-11T10:41:24.936Z,101674.31
2022-09-11T10:44:16.318Z,101680.53
2022-09-11T10:46:45.159Z,101630.91
2022-09-11T10:49:14.681Z,101686.84
2022-09-11T10:51:47.305Z,101681.16
2022-09-11T10:54:32.319Z,101641.47
2022-09-11T10:57:13.356Z,101641.25
2022-09-11T10:59:55.342Z,101585.28
2022-09-11T11:02:31.679Z,101653.63
2022-09-11T11:05:06.101Z,101665.63
2022-09-11T11:07:36.321Z,101676.06
2022-09-11T11:10:32.429Z,101676.53
2022-09-11T11:13:13.568Z,101681.00
2022-09-11T11:15:59.551Z,101679.34
2022-09-11T11:18:32.795Z,101686.09
2022-09-11T11:21:17.999Z,101634.28
2022-09-11T11:23:59.485Z,101687.59
2022-09-11T11:26:44.852Z,101684.88
2022-09-11T11:29:39.191Z,101690.72
2022-09-11T11:32:19.111Z,101645.66
2022-09-11T11:35:01.162Z,101685.25
2022-09-11T11:37:36.004Z,101664.72
2022-09-11T11:40:21.429Z,101685.28
2022-09-11T11:42:57.082Z,101666.81
2022-09-11T11:45:32.180Z,101693.16
2022-09-11T11:48:09.138Z,101689.97
2022-09-11T11:50:43.986Z,101688.38
2022-09-11T11:53:55.440Z,101689.94
2022-09-11T11:56:44.910Z,101682.41
2022-09-11T11:59:31.203Z,101664.00
2022-09-11T12:02:03.288Z,101695.88
2022-09-11T12:04:49.645Z,101688.94
2022-09-11T12:07:31.333Z,101685.84
2022-09-11T12:10:00.262Z,101659.66
2022-09-11T12:12:29.840Z,101693.66
2022-09-11T12:15:08.725Z,101692.63
2022-09-11T12:17:37.159Z,101689.72
2022-09-11T12:20:09.534Z,101691.63
2022-09-11T12:22:48.548Z,101677.94
2022-09-11T12:25:21.182Z,101687.97
2022-09-11T12:27:48.651Z,101689.75
2022-09-11T12:30:17.820Z,101686.72
2022-09-11T12:32:49.706Z,101652.41
2022-09-11T12:35:21.701Z,101676.03
2022-09-11T12:38:13.228Z,101684.69
2022-09-11T12:40:49.391Z,101664.25
2022-09-11T12:43:37.715Z,101679.81
2022-09-11T12:46:08.991Z,101674.72
2022-09-11T12:48:43.095Z,101685.69
2022-09-11T12:51:32.469Z,101675.75
2022-09-11T12:54:03.077Z,101675.22
2022-09-11T12:56:34.838Z,101671.94
2022-09-11T12:59:07.509Z,101686.22
2022-09-11T13:01:36.979Z,101684.59
2022-09-11T13:04:14.704Z,101668.91
2022-09-11T13:06:43.556Z,101673.63
2022-09-11T13:09:28.205Z,101667.06
2022-09-11T13:12:26.201Z,101658.84
2022-09-11T13:14:53.407Z,101648.63
2022-09-11T13:17:46.728Z,101658.69
2022-09-11T13:20:13.116Z,101667.56
2022-09-11T13:22:39.604Z,101631.78
2022-09-11T13:25:28.234Z,101663.66
2022-09-11T13:28:03.704Z,101629.25
2022-09-11T13:30:30.319Z,101669.78
2022-09-11T13:33:06.958Z,101650.88
2022-09-11T13:35:34.707Z,101655.06
2022-09-11T13:38:13.693Z,101617.25
2022-09-11T13:41:00.123Z,101662.75
2022-09-11T13:43:49.941Z,101631.91
2022-09-11T13:46:16.226Z,101652.50
2022-09-11T13:48:49.044Z,101656.09
2022-09-11T13:51:29.654Z,101650.03
2022-09-11T13:54:05.685Z,101642.06
2022-09-11T13:57:04.722Z,101641.97
2022-09-11T13:59:57.099Z,101613.97
2022-09-11T14:02:37.990Z,101650.25
2022-09-11T14:05:07.224Z,101640.47
2022-09-11T14:07:41.026Z,101641.97
2022-09-11T14:10:18.305Z,101640.53
2022-09-11T14:13:02.828Z,101634.88
2022-09-11T14:15:38.165Z,101616.59
2022-09-11T14:18:11.647Z,101624.72
2022-09-11T14:20:43.471Z,101616.91
2022-09-11T14:23:18.455Z,101621.25
2022-09-11T14:26:09.879Z,101635.31
2022-09-11T14:28:40.228Z,101645.50
2022-09-11T14:31:11.598Z,101631.53
2022-09-11T14:33:41.369Z,101640.53
2022-09-11T14:36:16.081Z,101629.91
2022-09-11T14:38:42.628Z,101630.03
2022-09-11T14:41:09.077Z,101613.47
2022-09-11T14:43:38.477Z,101587.34
2022-09-11T14:46:04.905Z,101593.38
2022-09-11T14:48:34.648Z,101623.53
2022-09-11T14:51:09.901Z,101628.72
2022-09-11T14:53:41.232Z,101623.59
2022-09-11T14:56:07.606Z,101633.78
2022-09-11T14:58:34.105Z,101622.63
2022-09-11T15:01:02.231Z,101607.47
2022-09-11T15:03:30.896Z,101633.28
2022-09-11T15:05:58.307Z,101631.94
2022-09-11T15:08:25.331Z,101630.44
2022-09-11T15:10:53.430Z,101643.16
2022-09-11T15:13:21.172Z,101612.72
2022-09-11T15:15:47.942Z,101610.91
2022-09-11T15:18:14.342Z,101611.69
2022-09-11T15:20:40.725Z,101619.22
2022-09-11T15:23:07.127Z,101594.69
2022-09-11T15:25:33.710Z,101592.72
2022-09-11T15:28:00.134Z,101609.66
2022-09-11T15:30:27.878Z,101604.19
2022-09-11T15:32:54.847Z,101595.81
2022-09-11T15:35:23.146Z,101610.25
2022-09-11T15:37:49.691Z,101584.31
2022-09-11T15:40:16.985Z,101600.28
2022-09-11T15:42:43.363Z,101613.31
2022-09-11T15:45:10.171Z,101606.16
2022-09-11T15:47:36.856Z,101592.44
2022-09-11T15:50:04.802Z,101617.84
2022-09-11T15:52:33.265Z,101610.97
2022-09-11T15:54:59.695Z,101611.69
2022-09-11T15:57:28.360Z,101602.22
2022-09-11T15:59:57.405Z,101573.75
2022-09-11T16:02:24.519Z,101567.03
2022-09-11T16:04:54.429Z,101591.38
2022-09-11T16:07:32.336Z,101619.22
2022-09-11T16:10:13.531Z,101515.03
2022-09-11T16:12:41.029Z,101633.47
2022-09-11T16:15:07.922Z,101591.97
2022-09-11T16:17:34.316Z,101595.53
2022-09-11T16:20:00.717Z,101595.28
2022-09-11T16:22:30.795Z,101619.63
2022-09-11T16:24:59.098Z,101612.66
2022-09-11T16:27:26.145Z,101619.72
2022-09-11T16:30:25.868Z,101607.75
2022-09-11T16:32:40.472Z,101595.78
2022-09-11T16:35:08.422Z,101601.25
2022-09-11T16:37:35.388Z,101599.56
2022-09-11T16:40:02.910Z,101594.84
2022-09-11T16:42:29.563Z,101600.06
2022-09-11T16:44:56.128Z,101591.28
2022-09-11T16:47:23.171Z,101588.78
2022-09-11T16:50:06.572Z,101597.81
2022-09-11T16:52:34.612Z,101557.81
2022-09-11T16:55:01.021Z,101555.94
2022-09-11T16:57:27.646Z,101568.72
2022-09-11T16:59:54.304Z,101609.81
2022-09-11T17:02:20.715Z,101591.72
2022-09-11T17:04:47.215Z,101580.81
2022-09-11T17:07:13.641Z,101599.44
2022-09-11T17:09:40.020Z,101562.69
2022-09-11T17:12:06.968Z,101576.31
2022-09-11T17:14:34.106Z,101593.44
2022-09-11T17:17:00.473Z,101598.19
2022-09-11T17:19:27.142Z,101581.28
2022-09-11T17:21:54.223Z,101597.34
2022-09-11T17:24:24.416Z,101610.25
2022-09-11T17:26:50.803Z,101588.94
2022-09-11T17:29:19.374Z,101598.38
2022-09-11T17:31:46.589Z,101577.28
2022-09-11T17:34:14.099Z,101617.81
2022-09-11T17:36:40.640Z,101576.41
2022-09-11T17:39:07.275Z,101574.22
2022-09-11T17:41:33.719Z,101593.88
2022-09-11T17:44:00.155Z,101579.41
2022-09-11T17:46:26.606Z,101609.06
2022-09-11T17:48:53.006Z,101573.16
2022-09-11T17:51:24.043Z,101586.06
2022-09-11T17:53:55.307Z,101619.94
2022-09-11T17:56:24.723Z,101616.66
2022-09-11T17:58:52.735Z,101625.94
2022-09-11T18:01:20.177Z,101613.22
2022-09-11T18:03:52.491Z,101621.72
2022-09-11T18:06:27.697Z,101615.06
2022-09-11T18:09:00.363Z,101600.47
2022-09-11T18:11:27.161Z,101613.84
2022-09-11T18:13:54.663Z,101624.69
2022-09-11T18:16:22.240Z,101618.47
2022-09-11T18:18:49.847Z,101617.38
2022-09-11T18:21:16.259Z,101616.22
2022-09-11T18:23:44.890Z,101616.59
2022-09-11T18:26:23.157Z,101617.31
2022-09-11T18:28:50.677Z,101626.56
2022-09-11T18:31:17.418Z,101636.63
2022-09-11T18:33:44.284Z,101621.53
2022-09-11T18:36:13.357Z,101627.97
2022-09-11T18:38:40.246Z,101631.53
2022-09-11T18:41:06.986Z,101615.81
2022-09-11T18:43:33.410Z,101607.47
2022-09-11T18:46:02.297Z,101644.91
2022-09-11T18:48:28.708Z,101624.09
2022-09-11T18:50:55.046Z,101645.72
2022-09-11T18:53:21.951Z,101642.38
2022-09-11T18:55:48.359Z,101646.31
2022-09-11T18:58:14.723Z,101635.19
2022-09-11T19:00:41.291Z,101621.91
2022-09-11T19:03:08.417Z,101636.44
2022-09-11T19:05:34.878Z,101638.81
2022-09-11T19:08:02.402Z,101639.03
2022-09-11T19:10:28.796Z,101645.63
2022-09-11T19:12:55.223Z,101640.75
2022-09-11T19:15:21.953Z,101626.06
2022-09-11T19:17:49.495Z,101648.00
2022-09-11T19:20:16.156Z,101637.88
2022-09-11T19:22:42.522Z,101637.16
2022-09-11T19:25:09.956Z,101641.19
2022-09-11T19:27:37.524Z,101656.88
2022-09-11T19:30:06.297Z,101631.41
2022-09-11T19:32:33.271Z,101654.50
2022-09-11T19:35:00.200Z,101651.94
2022-09-11T19:37:28.257Z,101645.31
2022-09-11T19:39:57.274Z,101651.03
2022-09-11T19:42:23.818Z,101663.81
2022-09-11T19:44:54.254Z,101660.41
2022-09-11T19:47:25.022Z,101653.59
2022-09-11T19:49:51.721Z,101647.63
2022-09-11T19:52:18.239Z,101660.06
2022-09-11T19:54:44.608Z,101677.06
2022-09-11T19:57:11.001Z,101669.94
2022-09-11T19:59:38.009Z,101653.66
2022-09-11T20:02:04.543Z,101664.97
2022-09-11T20:04:30.974Z,101640.28
2022-09-11T20:06:57.398Z,101666.25
2022-09-11T20:09:32.359Z,101663.81
2022-09-11T20:12:00.657Z,101646.38
2022-09-11T20:14:28.182Z,101662.69
2022-09-11T20:16:54.648Z,101631.19
2022-09-11T20:19:21.089Z,101631.19
2022-09-11T20:21:47.527Z,101656.47
2022-09-11T20:24:14.904Z,101669.22
2022-09-11T20:26:41.308Z,101655.19
2022-09-11T20:29:12.585Z,101653.50
2022-09-11T20:31:46.796Z,101688.81
2022-09-11T20:34:15.961Z,101689.28
2022-09-11T20:36:42.586Z,101660.50
2022-09-11T20:39:12.347Z,101687.47
2022-09-11T20:41:39.283Z,101673.41
2022-09-11T20:44:05.761Z,101643.44
2022-09-11T20:46:32.422Z,101668.56
2022-09-11T20:49:00.506Z,101667.84
2022-09-11T20:51:27.217Z,101675.38
2022-09-11T20:53:55.653Z,101687.81
2022-09-11T20:56:25.011Z,101660.59
2022-09-11T20:58:52.142Z,101658.41
2022-09-11T21:01:22.144Z,101646.13
2022-09-11T21:03:53.674Z,101643.78
2022-09-11T21:06:25.517Z,101676.94
2022-09-11T21:08:55.326Z,101655.69
2022-09-11T21:11:23.141Z,101663.88
2022-09-11T21:13:49.558Z,101670.53
2022-09-11T21:16:16.715Z,101672.25
2022-09-11T21:18:52.376Z,101678.88
2022-09-11T21:21:19.843Z,101668.59
2022-09-11T21:23:46.638Z,101671.56
2022-09-11T21:26:14.878Z,101664.94
2022-09-11T21:28:41.922Z,101664.22
2022-09-11T21:31:09.110Z,101638.28
2022-09-11T21:33:36.894Z,101661.28
2022-09-11T21:36:05.059Z,101653.69
2022-09-11T21:38:31.580Z,101653.22
2022-09-11T21:41:00.026Z,101641.41
2022-09-11T21:43:27.188Z,101650.72
2022-09-11T21:45:54.069Z,101643.09
2022-09-11T21:48:20.680Z,101638.56
2022-09-11T21:50:47.155Z,101654.81
2022-09-11T21:53:13.598Z,101622.09
2022-09-11T21:55:42.603Z,101658.78
2022-09-11T21:58:14.447Z,101626.63
2022-09-11T22:00:43.171Z,101645.97
2022-09-11T22:03:12.125Z,101628.31
2022-09-11T22:05:41.451Z,101642.84
2022-09-11T22:08:07.941Z,101609.56
2022-09-11T22:10:34.333Z,101625.47
2022-09-11T22:13:00.817Z,101607.06
2022-09-11T22:15:27.186Z,101623.53
2022-09-11T22:17:53.523Z,101626.78
2022-09-11T22:20:19.998Z,101627.91
2022-09-11T22:22:46.400Z,101605.34
2022-09-11T22:25:12.739Z,101633.03
2022-09-11T22:27:39.112Z,101624.69
2022-09-11T22:30:07.270Z,101643.47
2022-09-11T22:32:33.661Z,101605.66
2022-09-11T22:35:00.063Z,101630.66
2022-09-11T22:37:26.505Z,101620.63
2022-09-11T22:39:52.924Z,101645.72
2022-09-11T22:42:19.317Z,101624.72
2022-09-11T22:44:45.676Z,101645.47
2022-09-11T22:47:14.624Z,101637.28
2022-09-11T22:49:41.221Z,101642.22
2022-09-11T22:52:08.449Z,101639.28
2022-09-11T22:54:34.962Z,101608.78
2022-09-11T22:57:01.431Z,101639.81
2022-09-11T22:59:28.022Z,101614.56
2022-09-11T23:01:54.475Z,101609.91
2022-09-11T23:04:20.913Z,101592.84
2022-09-11T23:07:05.740Z,101599.75
2022-09-11T23:09:32.250Z,101601.16
2022-09-11T23:11:58.681Z,101639.53
2022-09-11T23:14:25.031Z,101605.13
2022-09-11T23:16:51.613Z,101616.81
2022-09-11T23:19:18.226Z,101632.22
2022-09-11T23:21:44.613Z,101618.91
2022-09-11T23:24:13.512Z,101616.94
2022-09-11T23:26:40.435Z,101630.22
2022-09-11T23:29:06.958Z,101617.75
2022-09-11T23:31:34.753Z,101636.97
2022-09-11T23:34:04.344Z,101634.56
2022-09-11T23:36:31.572Z,101635.69
2022-09-11T23:38:58.729Z,101612.94
2022-09-11T23:41:26.002Z,101610.81
2022-09-11T23:43:52.834Z,101631.00
2022-09-11T23:46:19.841Z,101639.16
2022-09-11T23:48:46.380Z,101605.00
2022-09-11T23:51:13.323Z,101629.88
2022-09-11T23:53:43.293Z,101632.69
2022-09-11T23:56:14.365Z,101630.97
2022-09-11T23:58:41.488Z,101634.06
